Val Marie Southeast, Canada
Current Conditions -  °F | °C
As of 2:53 PM on Thursday 20 Nov 2014 (Local Time) from KGGW Reporting Station
Clear Clear  
Wind Chill: 18°   Ceiling: Unl
Heat Index: 26°   Visibility: 10mi
Dew Point: 20°   Wind: 8mph
Humidity: 78%   Direction: 120°ESE
Pressure: 29.82"   Gusts: NA
Location:  49.07°N, 107.58°W
Report Text: KGGW 202053Z AUTO 12007KT 10SM CLR M03/M07 A2982 RMK AO2 SLP133 T10331067 56025
Loading
Personal Weather Stations






























Interactive Weather Map New forecast layout! Learn more

10-Day Weather Forecast

Advertisements
Track Severe Weather on mobile